Time;durP1;ratioP1;P1;durP2;ratioP2;P2;SDS_P1;SDS_P2;PMS_P1;PMS_P2;Temp;Humidity;BMP_temperature;BMP_pressure;BME280_temperature;BME280_humidity;BME280_pressure;Samples;Min_cycle;Max_cycle;Signal;HPM_P1;HPM_P2
2022/07/30 00:00:09;;;;;;;8.02;5.95;;;;;;;26.03;47.29;99407.66;5069868;28;20187;-60
2022/07/30 00:02:36;;;;;;;6.28;5.78;;;;;;;25.99;47.24;99402.56;5069649;28;20716;-60
2022/07/30 00:05:04;;;;;;;7.82;6.28;;;;;;;25.97;46.92;99402.66;5069738;28;20202;-60
2022/07/30 00:07:32;;;;;;;6.10;5.57;;;;;;;25.97;47.06;99402.66;5069747;28;20203;-60
2022/07/30 00:09:59;;;;;;;6.60;6.10;;;;;;;25.97;47.33;99405.28;5069821;28;20615;-61
2022/07/30 00:12:25;;;;;;;6.40;5.70;;;;;;;26.01;47.65;99409.50;5069622;28;20187;-60
2022/07/30 00:14:52;;;;;;;7.07;5.90;;;;;;;26.01;47.66;99406.88;5070098;28;20554;-60
2022/07/30 00:17:19;;;;;;;6.05;5.45;;;;;;;25.97;47.78;99410.56;5069831;28;20207;-60
2022/07/30 00:19:46;;;;;;;6.47;5.95;;;;;;;25.99;47.60;99413.09;5069432;28;20692;-60
2022/07/30 00:22:13;;;;;;;6.18;5.68;;;;;;;25.98;47.56;99406.16;5069499;28;20211;-60
2022/07/30 00:24:41;;;;;;;6.10;5.60;;;;;;;25.99;47.77;99407.84;5069551;28;20187;-58
2022/07/30 00:27:08;;;;;;;6.43;5.60;;;;;;;25.98;47.82;99401.75;5069499;28;20200;-60
2022/07/30 00:29:35;;;;;;;6.28;5.68;;;;;;;26.00;47.90;99397.25;5069462;28;20191;-59
2022/07/30 00:32:01;;;;;;;6.78;5.80;;;;;;;25.99;48.15;99402.56;5069343;28;20662;-59
2022/07/30 00:34:28;;;;;;;5.93;5.43;;;;;;;25.96;47.93;99393.03;5069596;28;20268;-60
2022/07/30 00:36:55;;;;;;;7.88;5.22;;;;;;;25.98;48.12;99393.00;5069376;28;20207;-59
2022/07/30 00:39:22;;;;;;;5.85;5.30;;;;;;;25.97;48.35;99400.03;5069399;28;20588;-60
2022/07/30 00:41:59;;;;;;;6.38;5.78;;;;;;;25.94;48.52;99388.78;5069200;28;20222;-59
2022/07/30 00:44:26;;;;;;;6.35;5.72;;;;;;;25.94;48.47;99392.28;5069178;28;20278;-59
2022/07/30 00:46:54;;;;;;;6.38;5.72;;;;;;;25.87;49.21;99396.13;5069156;28;20507;-60
2022/07/30 00:49:21;;;;;;;6.72;5.13;;;;;;;25.90;49.03;99392.50;5069531;28;20195;-59
2022/07/30 00:51:48;;;;;;;7.63;7.03;;;;;;;25.93;48.79;99387.91;5069992;28;20210;-59
2022/07/30 00:54:16;;;;;;;5.88;5.38;;;;;;;25.92;49.12;99388.88;5069302;28;20196;-60
2022/07/30 00:56:43;;;;;;;6.80;5.38;;;;;;;25.92;49.19;99386.22;5069622;28;20210;-61
2022/07/30 00:59:12;;;;;;;5.50;4.88;;;;;;;25.91;48.79;99381.03;5069362;28;20211;-60
2022/07/30 01:01:39;;;;;;;6.68;5.57;;;;;;;25.87;49.11;99380.34;5069109;28;20215;-60
2022/07/30 01:04:10;;;;;;;8.82;5.95;;;;;;;25.87;49.30;99380.34;5071814;28;20206;-60
2022/07/30 01:06:38;;;;;;;6.45;5.63;;;;;;;25.86;49.11;99376.00;5072738;28;20308;-61
2022/07/30 01:09:05;;;;;;;6.53;5.20;;;;;;;25.82;49.34;99392.00;5072619;28;20260;-60
2022/07/30 01:11:36;;;;;;;6.70;5.05;;;;;;;25.79;49.61;99383.31;5071782;28;20426;-60
2022/07/30 01:14:05;;;;;;;6.55;5.93;;;;;;;25.90;49.64;99389.88;5072729;28;20191;-60
2022/07/30 01:16:33;;;;;;;8.70;4.75;;;;;;;25.90;49.59;99381.97;5072731;28;20282;-60
2022/07/30 01:22:00;;;;;;;6.30;5.30;;;;;;;25.85;49.72;99383.97;5072443;28;20214;-60
2022/07/30 01:24:36;;;;;;;5.70;5.30;;;;;;;25.80;49.58;99384.16;5072429;28;20199;-59
2022/07/30 01:27:06;;;;;;;6.33;5.50;;;;;;;25.76;49.96;99388.75;5072426;28;20199;-60
2022/07/30 01:29:34;;;;;;;6.47;5.83;;;;;;;25.70;50.18;99388.19;5072335;28;20567;-59
2022/07/30 01:32:02;;;;;;;5.80;5.30;;;;;;;25.65;49.95;99388.41;5072307;28;20188;-60
2022/07/30 01:34:32;;;;;;;6.53;5.10;;;;;;;25.63;50.28;99384.97;5072246;28;20704;-60
2022/07/30 01:37:02;;;;;;;6.17;5.63;;;;;;;25.60;50.48;99384.28;5072331;28;20200;-59
2022/07/30 01:39:30;;;;;;;5.78;5.28;;;;;;;25.57;50.61;99382.59;5072189;28;20188;-60
2022/07/30 01:41:58;;;;;;;6.63;6.00;;;;;;;25.59;50.95;99379.94;5072168;28;20219;-59
2022/07/30 01:44:27;;;;;;;7.10;6.07;;;;;;;25.56;50.89;99382.69;5071869;28;20203;-60
2022/07/30 01:46:55;;;;;;;6.32;5.55;;;;;;;25.55;50.97;99379.19;5072421;28;20207;-60
2022/07/30 01:49:25;;;;;;;6.43;5.80;;;;;;;25.49;50.93;99370.75;5071508;28;20495;-60
2022/07/30 01:51:53;;;;;;;9.90;5.90;;;;;;;25.56;50.96;99374.81;5071754;28;20654;-60
2022/07/30 01:54:21;;;;;;;8.10;5.95;;;;;;;25.48;50.80;99366.41;5071829;28;20202;-60
2022/07/30 01:56:51;;;;;;;5.93;5.40;;;;;;;25.51;51.26;99375.03;5071549;28;20195;-60
2022/07/30 01:59:20;;;;;;;8.20;6.03;;;;;;;25.49;51.37;99373.41;5071774;28;20195;-59
2022/07/30 02:01:49;;;;;;;7.23;6.40;;;;;;;25.49;51.48;99381.28;5071746;28;20227;-60
2022/07/30 02:04:15;;;;;;;7.83;7.03;;;;;;;25.48;51.40;99383.06;5072006;28;20208;-60
2022/07/30 02:06:47;;;;;;;6.80;6.10;;;;;;;25.47;51.47;99380.47;5071771;28;20700;-60
2022/07/30 02:09:17;;;;;;;6.40;5.80;;;;;;;25.38;51.40;99388.78;5071383;28;20198;-59
2022/07/30 02:14:40;;;;;;;7.07;6.37;;;;;;;25.25;50.80;99380.56;5070384;28;20194;-60
2022/07/30 02:17:15;;;;;;;6.70;5.93;;;;;;;25.19;50.79;99380.84;5071268;28;20249;-60
2022/07/30 02:19:45;;;;;;;6.33;5.67;;;;;;;25.14;51.04;99383.69;5071839;28;20199;-60
2022/07/30 02:22:15;;;;;;;6.50;5.90;;;;;;;25.11;51.52;99380.34;5071140;28;20219;-60
2022/07/30 02:24:43;;;;;;;8.60;6.33;;;;;;;25.04;51.67;99379.78;5071335;28;20191;-60
2022/07/30 02:27:16;;;;;;;7.73;6.13;;;;;;;25.02;51.91;99378.13;5071287;28;20253;-60
2022/07/30 02:29:45;;;;;;;7.87;6.13;;;;;;;24.99;52.65;99379.13;5071144;28;20191;-60
2022/07/30 02:32:17;;;;;;;7.10;6.40;;;;;;;24.98;52.31;99374.78;5070981;28;20245;-60
2022/07/30 02:34:46;;;;;;;10.53;6.57;;;;;;;24.95;52.62;99367.03;5071445;28;20248;-60
2022/07/30 02:37:15;;;;;;;6.93;6.33;;;;;;;24.86;53.63;99371.84;5070932;28;20593;-60
2022/07/30 02:39:43;;;;;;;10.63;6.20;;;;;;;24.88;53.29;99381.38;5071008;28;20199;-60
2022/07/30 02:42:12;;;;;;;6.87;6.37;;;;;;;24.78;52.88;99359.00;5070896;28;20224;-60
2022/07/30 02:44:43;;;;;;;7.47;6.50;;;;;;;24.89;52.63;99387.47;5070617;28;20188;-60
2022/07/30 02:47:12;;;;;;;8.97;6.40;;;;;;;24.87;52.70;99373.53;5070827;28;20190;-60
2022/07/30 02:49:42;;;;;;;6.77;6.00;;;;;;;24.84;52.98;99384.19;5070651;28;20669;-60
2022/07/30 02:52:12;;;;;;;6.72;6.15;;;;;;;24.88;51.90;99370.84;5069596;28;20433;-60
2022/07/30 02:54:41;;;;;;;10.40;6.33;;;;;;;24.89;51.79;99369.06;5070648;28;20196;-59
2022/07/30 02:57:09;;;;;;;7.00;6.07;;;;;;;24.87;51.95;99382.28;5070346;28;20231;-60
2022/07/30 02:59:39;;;;;;;6.33;5.80;;;;;;;24.79;52.16;99371.25;5070402;28;20689;-60
2022/07/30 03:02:07;;;;;;;7.23;6.63;;;;;;;24.81;52.30;99372.03;5070534;28;20589;-60
2022/07/30 03:04:36;;;;;;;8.43;6.40;;;;;;;24.72;51.71;99375.03;5070354;28;20252;-60
2022/07/30 03:07:06;;;;;;;7.23;6.57;;;;;;;24.68;51.86;99365.56;5070198;28;20203;-60
2022/07/30 03:09:33;;;;;;;10.67;7.00;;;;;;;24.64;52.83;99363.97;5070183;28;20199;-60
2022/07/30 03:12:03;;;;;;;7.30;6.43;;;;;;;24.60;52.60;99359.78;5070142;28;20195;-60
2022/07/30 03:14:30;;;;;;;8.73;6.80;;;;;;;24.57;53.19;99358.16;5069667;28;20503;-60
2022/07/30 03:16:59;;;;;;;7.53;6.93;;;;;;;24.62;53.27;99353.53;5070356;28;20195;-60
2022/07/30 03:19:31;;;;;;;6.67;6.07;;;;;;;24.59;53.32;99352.81;5070306;28;20200;-60
2022/07/30 03:22:01;;;;;;;7.63;6.93;;;;;;;24.58;53.43;99351.13;5070373;28;20199;-60
2022/07/30 03:24:30;;;;;;;7.87;7.07;;;;;;;24.58;53.37;99353.75;5070010;28;20926;-60
2022/07/30 03:27:02;;;;;;;8.60;7.43;;;;;;;24.57;53.38;99357.28;5069995;28;20199;-60
2022/07/30 03:29:30;;;;;;;8.93;8.03;;;;;;;24.60;53.62;99360.66;5070042;28;20686;-60
2022/07/30 03:31:58;;;;;;;8.00;7.30;;;;;;;24.60;53.50;99358.03;5070106;28;20202;-60
2022/07/30 03:34:25;;;;;;;7.83;7.13;;;;;;;24.65;53.75;99360.44;5070044;28;20191;-60
2022/07/30 03:36:53;;;;;;;8.03;7.20;;;;;;;24.70;53.48;99362.84;5069838;28;20192;-60
2022/07/30 03:39:22;;;;;;;7.60;6.90;;;;;;;24.74;53.64;99369.72;5069998;28;20196;-60
2022/07/30 03:41:52;;;;;;;8.50;6.83;;;;;;;24.78;52.81;99364.25;5069998;28;20658;-60
2022/07/30 03:44:19;;;;;;;9.50;6.83;;;;;;;24.80;52.94;99362.47;5069985;28;20188;-60
2022/07/30 03:46:49;;;;;;;7.63;6.83;;;;;;;24.81;53.17;99364.16;5069985;28;20244;-60
2022/07/30 03:49:17;;;;;;;8.00;6.63;;;;;;;24.83;53.00;99362.28;5070077;28;20244;-60
2022/07/30 03:51:45;;;;;;;9.17;7.63;;;;;;;24.84;53.23;99374.53;5070002;28;20196;-60
2022/07/30 03:54:12;;;;;;;9.77;8.52;;;;;;;24.97;52.89;99380.13;5068876;28;20448;-59
2022/07/30 03:56:39;;;;;;;9.80;8.77;;;;;;;25.07;52.58;99371.75;5069760;28;20246;-60
2022/07/30 03:59:08;;;;;;;10.47;8.83;;;;;;;25.08;52.50;99373.44;5069751;28;20305;-60
2022/07/30 04:01:35;;;;;;;10.43;8.80;;;;;;;25.07;52.21;99378.78;5069843;28;20191;-60
2022/07/30 04:04:06;;;;;;;12.17;9.13;;;;;;;25.07;52.52;99390.16;5069742;28;20215;-60
2022/07/30 04:06:38;;;;;;;9.37;8.57;;;;;;;25.03;52.69;99377.19;5069734;28;20196;-60
2022/07/30 04:09:05;;;;;;;9.63;8.63;;;;;;;25.02;52.91;99379.00;5069557;28;20187;-60
2022/07/30 04:11:32;;;;;;;9.80;8.80;;;;;;;25.06;52.53;99388.44;5069457;28;20666;-60
2022/07/30 04:13:59;;;;;;;9.20;8.40;;;;;;;25.06;52.51;99388.44;5069568;28;20192;-60
2022/07/30 04:16:37;;;;;;;10.02;8.98;;;;;;;25.09;52.56;99385.69;5068502;28;20445;-60
2022/07/30 04:19:08;;;;;;;9.83;8.83;;;;;;;25.10;52.79;99395.28;5069444;28;20192;-60
2022/07/30 04:21:37;;;;;;;9.47;8.67;;;;;;;25.16;52.77;99386.28;5069592;28;20191;-59
2022/07/30 04:24:06;;;;;;;12.10;9.10;;;;;;;25.16;52.62;99394.16;5069346;28;20249;-59
2022/07/30 04:26:35;;;;;;;10.87;8.17;;;;;;;25.13;52.42;99389.88;5069192;28;20191;-59
2022/07/30 04:29:04;;;;;;;9.75;8.85;;;;;;;25.11;52.80;99391.72;5069178;28;20199;-60
2022/07/30 04:31:34;;;;;;;10.20;9.20;;;;;;;25.01;53.19;99395.69;5069571;28;20191;-60
2022/07/30 04:34:01;;;;;;;9.77;8.87;;;;;;;25.04;53.16;99394.69;5069652;28;20241;-60
2022/07/30 04:36:28;;;;;;;9.33;8.40;;;;;;;24.95;53.31;99398.56;5069399;28;20195;-60
2022/07/30 04:38:55;;;;;;;9.47;8.67;;;;;;;24.86;53.84;99398.13;5071651;28;20201;-60
2022/07/30 04:41:22;;;;;;;9.50;8.70;;;;;;;24.86;53.38;99395.50;5073014;28;20253;-60
2022/07/30 04:43:49;;;;;;;12.10;9.73;;;;;;;24.88;53.60;99401.53;5073099;28;20226;-60
2022/07/30 04:46:16;;;;;;;10.07;9.07;;;;;;;24.83;53.45;99371.97;5072924;28;20293;-60
2022/07/30 04:48:45;;;;;;;10.17;9.27;;;;;;;25.02;53.26;99394.78;5072864;28;20187;-60
2022/07/30 04:51:17;;;;;;;9.80;8.90;;;;;;;25.05;52.81;99391.16;5072960;28;20199;-60
2022/07/30 04:53:45;;;;;;;11.80;9.87;;;;;;;25.05;52.73;99393.78;5072911;28;20184;-60
2022/07/30 04:56:14;;;;;;;9.93;8.93;;;;;;;25.13;52.60;99392.50;5071667;28;20446;-60
2022/07/30 04:58:42;;;;;;;9.90;8.83;;;;;;;25.22;52.91;99394.72;5072703;28;20246;-60
2022/07/30 05:01:09;;;;;;;10.50;9.50;;;;;;;25.40;52.60;99392.19;5072663;28;20195;-60
2022/07/30 05:03:38;;;;;;;9.67;8.70;;;;;;;25.41;51.95;99396.53;5072469;28;20268;-60
2022/07/30 05:06:08;;;;;;;10.10;9.10;;;;;;;25.49;52.24;99395.28;5072457;28;20193;-60
2022/07/30 05:08:35;;;;;;;11.40;8.33;;;;;;;25.51;51.63;99388.19;5072604;28;20551;-60
2022/07/30 05:11:02;;;;;;;9.75;8.85;;;;;;;25.58;51.58;99394.84;5072691;28;20597;-60
2022/07/30 05:13:29;;;;;;;9.60;8.70;;;;;;;25.59;51.27;99387.81;5072536;28;20187;-60
2022/07/30 05:15:56;;;;;;;9.00;8.30;;;;;;;25.62;51.09;99396.44;5072277;28;20187;-60
2022/07/30 05:18:23;;;;;;;9.95;9.10;;;;;;;25.62;50.58;99391.19;5071243;28;20449;-59
2022/07/30 05:20:50;;;;;;;9.87;8.93;;;;;;;25.65;50.60;99390.19;5072194;28;20686;-60
2022/07/30 05:23:18;;;;;;;9.07;8.17;;;;;;;25.74;51.18;99389.72;5071894;28;20220;-60
2022/07/30 05:25:45;;;;;;;9.40;8.30;;;;;;;25.82;51.26;99403.41;5071965;28;20191;-60
2022/07/30 05:28:11;;;;;;;9.23;8.40;;;;;;;25.82;50.45;99399.91;5071888;28;20192;-60
2022/07/30 05:30:38;;;;;;;9.20;8.30;;;;;;;25.86;50.90;99401.47;5072006;28;20195;-60
2022/07/30 05:33:05;;;;;;;9.93;8.97;;;;;;;25.94;51.39;99396.69;5072260;28;20200;-60
2022/07/30 05:35:32;;;;;;;10.27;8.82;;;;;;;25.95;51.03;99391.34;5071916;28;20195;-61
2022/07/30 05:37:59;;;;;;;11.80;8.63;;;;;;;26.05;50.48;99397.88;5072146;28;20196;-60
2022/07/30 05:40:27;;;;;;;9.35;8.43;;;;;;;26.13;50.25;99385.22;5071552;28;20187;-60
2022/07/30 05:42:54;;;;;;;9.60;8.70;;;;;;;26.17;50.20;99389.44;5071974;28;20216;-60
2022/07/30 05:45:21;;;;;;;9.05;8.15;;;;;;;26.19;50.31;99390.19;5071446;28;20654;-60
2022/07/30 05:47:48;;;;;;;10.23;8.60;;;;;;;26.19;49.68;99381.44;5072029;28;20202;-61
2022/07/30 05:50:14;;;;;;;9.50;8.48;;;;;;;26.22;49.82;99383.94;5071165;28;20245;-60
2022/07/30 05:52:41;;;;;;;9.40;8.30;;;;;;;26.33;50.05;99390.38;5071373;28;20198;-60
2022/07/30 05:55:09;;;;;;;9.68;8.88;;;;;;;26.10;50.46;99390.59;5071565;28;20191;-60
2022/07/30 05:57:40;;;;;;;10.15;9.25;;;;;;;26.02;50.95;99392.75;5070015;28;20970;-60
2022/07/30 06:00:09;;;;;;;13.18;9.15;;;;;;;26.12;50.24;99390.53;5071321;28;20192;-60
2022/07/30 06:02:38;;;;;;;9.30;8.23;;;;;;;26.21;50.67;99385.69;5071427;28;20202;-60
2022/07/30 06:05:05;;;;;;;11.63;8.07;;;;;;;26.40;50.50;99387.44;5071544;28;20807;-60
2022/07/30 06:07:32;;;;;;;12.98;8.55;;;;;;;26.50;49.55;99389.53;5071629;28;20195;-60
2022/07/30 06:10:00;;;;;;;9.70;8.80;;;;;;;26.64;49.52;99389.69;5071493;28;20566;-60
2022/07/30 06:12:28;;;;;;;12.82;8.80;;;;;;;26.58;49.34;99387.38;5071359;28;20202;-60
2022/07/30 06:14:56;;;;;;;9.63;8.45;;;;;;;26.65;49.39;99386.09;5070986;28;20194;-60
2022/07/30 06:17:23;;;;;;;12.07;8.40;;;;;;;26.58;49.32;99384.72;5070844;28;20195;-60
2022/07/30 06:19:52;;;;;;;11.15;8.98;;;;;;;26.34;49.69;99386.78;5069927;28;20482;-60
2022/07/30 06:22:19;;;;;;;11.48;8.77;;;;;;;26.36;49.84;99374.41;5070959;28;20199;-60
2022/07/30 06:24:45;;;;;;;10.73;8.68;;;;;;;26.75;48.97;99387.38;5070901;28;20223;-60
2022/07/30 06:27:12;;;;;;;9.52;8.63;;;;;;;26.86;48.73;99385.03;5070986;28;20195;-60
2022/07/30 06:29:39;;;;;;;8.68;7.72;;;;;;;27.00;47.09;99389.63;5070651;28;20207;-60
2022/07/30 06:32:07;;;;;;;9.80;8.32;;;;;;;27.15;46.37;99385.31;5070429;28;20223;-60
2022/07/30 06:34:34;;;;;;;9.05;8.25;;;;;;;27.28;46.07;99395.13;5070569;28;20236;-60
2022/07/30 06:37:01;;;;;;;10.45;9.63;;;;;;;27.38;45.82;99393.72;5070575;28;20287;-60
2022/07/30 06:39:28;;;;;;;8.93;8.02;;;;;;;27.48;44.87;99399.38;5070341;28;20264;-60
2022/07/30 06:41:55;;;;;;;8.90;8.20;;;;;;;27.55;44.72;99400.75;5070174;28;20302;-60
2022/07/30 06:44:21;;;;;;;9.07;7.32;;;;;;;27.65;44.87;99390.53;5069773;28;20223;-60
2022/07/30 06:46:48;;;;;;;8.07;7.35;;;;;;;27.73;43.75;99398.88;5070194;28;20253;-60
2022/07/30 06:49:16;;;;;;;8.52;7.75;;;;;;;27.74;43.87;99396.16;5070305;28;20195;-60
2022/07/30 06:51:44;;;;;;;8.73;7.78;;;;;;;27.76;43.85;99394.28;5070463;28;20199;-60
2022/07/30 06:54:11;;;;;;;8.23;7.53;;;;;;;27.80;42.89;99397.63;5070472;28;20211;-60
2022/07/30 06:56:38;;;;;;;8.52;7.72;;;;;;;27.77;43.51;99400.44;5070076;28;20924;-60
2022/07/30 06:59:05;;;;;;;8.57;7.75;;;;;;;27.80;44.25;99384.41;5069892;28;20308;-60
2022/07/30 07:01:32;;;;;;;8.38;7.40;;;;;;;27.98;43.26;99388.66;5069811;28;20286;-61
2022/07/30 07:03:59;;;;;;;8.10;7.45;;;;;;;28.05;42.77;99382.97;5070088;28;20219;-60
2022/07/30 07:06:27;;;;;;;10.43;9.43;;;;;;;28.16;42.98;99376.22;5069833;28;20199;-61
2022/07/30 07:08:54;;;;;;;8.30;7.43;;;;;;;28.28;42.45;99378.16;5069878;28;20692;-60
2022/07/30 07:11:21;;;;;;;8.60;7.68;;;;;;;28.35;41.75;99368.94;5069446;28;20203;-60
2022/07/30 07:13:48;;;;;;;8.15;7.45;;;;;;;28.41;42.43;99374.72;5069854;28;20195;-60
2022/07/30 07:16:15;;;;;;;7.95;7.35;;;;;;;28.47;41.71;99373.50;5069391;28;20252;-61
2022/07/30 07:18:42;;;;;;;8.85;7.95;;;;;;;28.48;41.77;99362.00;5069820;28;20200;-60
2022/07/30 07:21:08;;;;;;;8.67;7.87;;;;;;;28.59;42.10;99370.16;5068640;28;20448;-60
2022/07/30 07:23:37;;;;;;;8.98;8.18;;;;;;;28.76;42.36;99380.59;5069131;28;20231;-60
2022/07/30 07:26:04;;;;;;;9.20;8.40;;;;;;;28.88;42.03;99371.94;5069245;28;20194;-60
2022/07/30 07:28:30;;;;;;;9.48;8.43;;;;;;;28.87;40.60;99356.97;5069698;28;20206;-60
2022/07/30 07:30:57;;;;;;;8.77;7.88;;;;;;;28.91;41.24;99357.66;5069703;28;20218;-60
2022/07/30 07:33:24;;;;;;;8.60;7.82;;;;;;;28.84;40.83;99349.25;5069446;28;20191;-60
2022/07/30 07:35:53;;;;;;;9.90;8.35;;;;;;;28.83;41.47;99344.91;5069482;28;20255;-61
2022/07/30 07:38:19;;;;;;;14.48;10.50;;;;;;;28.96;41.65;99361.72;5069267;28;20244;-61
2022/07/30 07:40:48;;;;;;;11.10;9.02;;;;;;;29.12;40.29;99357.19;5068843;28;20304;-61
2022/07/30 07:43:15;;;;;;;9.63;7.95;;;;;;;29.18;39.87;99353.31;5069046;28;20203;-61
2022/07/30 07:45:42;;;;;;;10.25;9.32;;;;;;;29.25;40.13;99355.50;5069259;28;20602;-61
2022/07/30 07:48:09;;;;;;;9.38;8.43;;;;;;;29.41;40.01;99350.13;5069302;28;20267;-60
2022/07/30 07:50:36;;;;;;;8.88;8.07;;;;;;;29.53;39.74;99359.94;5069184;28;20191;-60
2022/07/30 07:53:03;;;;;;;9.05;7.93;;;;;;;29.52;39.12;99352.94;5069222;28;20191;-60
2022/07/30 07:55:30;;;;;;;12.63;9.43;;;;;;;29.47;39.64;99344.47;5069036;28;20242;-60
2022/07/30 07:57:58;;;;;;;11.07;8.63;;;;;;;29.28;39.96;99337.75;5068791;28;20605;-60
2022/07/30 08:00:25;;;;;;;9.40;8.43;;;;;;;29.33;40.09;99335.66;5067879;28;20506;-60
2022/07/30 08:02:52;;;;;;;12.00;8.07;;;;;;;29.53;40.35;99335.28;5069207;28;20302;-60
2022/07/30 08:05:19;;;;;;;14.98;9.38;;;;;;;29.75;39.36;99340.88;5068785;28;20260;-61
2022/07/30 08:07:46;;;;;;;11.30;8.38;;;;;;;29.81;39.08;99344.00;5068840;28;20195;-60
2022/07/30 08:10:14;;;;;;;9.57;8.25;;;;;;;29.92;39.39;99339.81;5068645;28;20267;-60
2022/07/30 08:12:42;;;;;;;12.82;8.52;;;;;;;29.93;38.70;99337.06;5071223;28;20191;-61
2022/07/30 08:15:11;;;;;;;8.63;7.85;;;;;;;29.76;38.71;99338.13;5073084;28;20187;-60
2022/07/30 08:17:40;;;;;;;10.60;8.43;;;;;;;29.96;39.74;99339.53;5072720;28;20191;-60
2022/07/30 08:20:08;;;;;;;9.98;8.00;;;;;;;30.09;39.17;99336.91;5072926;28;20650;-60
2022/07/30 08:22:35;;;;;;;9.60;8.70;;;;;;;30.14;39.08;99330.34;5072159;28;20503;-60
2022/07/30 08:25:02;;;;;;;11.27;10.02;;;;;;;30.24;39.24;99328.78;5072881;28;20219;-60
2022/07/30 08:27:29;;;;;;;11.50;10.27;;;;;;;30.30;38.88;99328.38;5072588;28;20198;-60
2022/07/30 08:29:56;;;;;;;9.40;8.27;;;;;;;30.40;39.07;99326.00;5072649;28;20187;-60
2022/07/30 08:32:24;;;;;;;9.55;8.68;;;;;;;30.39;38.52;99326.94;5072515;28;20203;-60
2022/07/30 08:34:51;;;;;;;9.52;8.82;;;;;;;30.47;38.82;99321.09;5072376;28;20183;-60
2022/07/30 08:37:18;;;;;;;8.73;7.82;;;;;;;30.47;37.83;99321.97;5072661;28;20229;-60
2022/07/30 08:39:44;;;;;;;9.38;8.38;;;;;;;30.59;37.36;99320.28;5072817;28;20661;-60
2022/07/30 08:42:13;;;;;;;10.30;9.32;;;;;;;30.63;37.62;99312.00;5072253;28;20239;-61
2022/07/30 08:44:41;;;;;;;11.27;7.47;;;;;;;30.69;37.08;99322.19;5072256;28;20215;-62
2022/07/30 08:47:11;;;;;;;8.80;7.50;;;;;;;30.61;36.80;99297.16;5072021;28;20265;-61
2022/07/30 08:49:39;;;;;;;7.85;7.07;;;;;;;30.57;36.92;99316.91;5072068;28;20188;-61
2022/07/30 08:52:07;;;;;;;12.15;9.88;;;;;;;30.69;37.51;99311.59;5072220;28;20203;-61
2022/07/30 08:54:35;;;;;;;8.00;6.05;;;;;;;30.87;33.94;99310.34;5071782;28;20199;-61
2022/07/30 08:57:02;;;;;;;7.32;6.70;;;;;;;31.03;34.55;99303.97;5071757;28;20783;-61
2022/07/30 08:59:30;;;;;;;7.60;6.95;;;;;;;31.12;35.00;99309.50;5072140;28;20205;-61
2022/07/30 09:01:58;;;;;;;8.98;7.57;;;;;;;31.25;34.56;99293.53;5071327;28;20920;-61
2022/07/30 09:04:25;;;;;;;8.82;7.50;;;;;;;31.40;34.75;99293.25;5072044;28;20242;-60
2022/07/30 09:06:53;;;;;;;7.28;6.65;;;;;;;31.38;35.49;99289.03;5071726;28;20269;-66
2022/07/30 09:09:20;;;;;;;7.43;6.70;;;;;;;31.48;35.08;99290.94;5071792;28;20194;-67
2022/07/30 09:11:46;;;;;;;8.57;7.13;;;;;;;31.60;34.68;99294.50;5072151;28;20200;-67
2022/07/30 09:14:15;;;;;;;7.72;6.38;;;;;;;31.70;34.59;99284.88;5071814;28;20194;-67
2022/07/30 09:16:43;;;;;;;9.32;8.52;;;;;;;31.81;33.29;99271.66;5071865;28;20666;-67
2022/07/30 09:19:16;;;;;;;7.53;6.88;;;;;;;31.84;33.02;99273.25;5071734;28;20206;-68
2022/07/30 09:21:43;;;;;;;9.05;8.25;;;;;;;31.88;33.39;99275.56;5071794;28;20305;-67
2022/07/30 09:24:12;;;;;;;7.70;7.15;;;;;;;31.86;33.51;99266.88;5071246;28;20215;-67
2022/07/30 09:27:04;;;;;;;6.95;6.35;;;;;;;32.09;32.98;99265.16;5070789;28;21000;-68
2022/07/30 09:29:31;;;;;;;6.88;6.28;;;;;;;32.09;31.52;99260.69;5062036;28;20282;-66
2022/07/30 09:32:00;;;;;;;7.13;5.97;;;;;;;32.00;32.26;99244.56;5071862;28;20196;-67
2022/07/30 09:34:28;;;;;;;7.95;6.57;;;;;;;32.10;31.83;99250.91;5071927;28;20596;-67
2022/07/30 09:36:56;;;;;;;6.80;6.30;;;;;;;32.16;31.90;99245.13;5071714;28;20191;-67
2022/07/30 09:39:31;;;;;;;10.40;8.88;;;;;;;32.17;31.83;99246.00;5071496;28;20282;-67
2022/07/30 09:41:58;;;;;;;6.25;5.72;;;;;;;32.18;32.26;99248.53;5071737;28;20199;-67
2022/07/30 09:44:26;;;;;;;11.25;8.02;;;;;;;32.14;32.29;99232.94;5071596;28;20215;-67
2022/07/30 09:46:53;;;;;;;7.43;6.10;;;;;;;31.96;31.10;99169.53;5071651;28;20685;-67
2022/07/30 09:49:21;;;;;;;10.73;8.43;;;;;;;32.41;30.85;99236.13;5071715;28;20662;-68
2022/07/30 09:51:48;;;;;;;8.65;6.90;;;;;;;32.44;31.70;99227.91;5071666;28;20187;-66
2022/07/30 09:54:15;;;;;;;6.45;5.97;;;;;;;32.44;30.77;99239.38;5071459;28;20195;-66
2022/07/30 09:56:45;;;;;;;6.65;6.05;;;;;;;32.36;31.66;99227.66;5071205;28;20203;-66
2022/07/30 09:59:26;;;;;;;7.22;5.80;;;;;;;32.54;31.85;99227.09;5071707;28;20208;-67
2022/07/30 10:01:54;;;;;;;6.80;6.20;;;;;;;32.67;31.47;99219.84;5071341;28;20188;-67
2022/07/30 10:04:25;;;;;;;6.65;5.95;;;;;;;32.65;30.29;99223.59;5070960;28;20446;-67
2022/07/30 10:06:52;;;;;;;6.68;6.07;;;;;;;32.46;29.77;99221.50;5071030;28;20249;-68
2022/07/30 10:09:27;;;;;;;14.77;6.72;;;;;;;32.48;29.73;99222.22;5071514;28;20293;-67
2022/07/30 10:11:59;;;;;;;5.60;5.07;;;;;;;32.69;28.02;99217.03;5071238;28;20248;-67
2022/07/30 10:14:30;;;;;;;4.95;4.55;;;;;;;32.73;29.46;99212.34;5071050;28;20203;-66
2022/07/30 10:16:57;;;;;;;6.07;5.47;;;;;;;32.90;30.22;99211.84;5070630;28;20202;-66
2022/07/30 10:19:25;;;;;;;5.47;4.97;;;;;;;33.03;30.95;99209.91;5071053;28;20211;-68
2022/07/30 10:21:55;;;;;;;9.77;6.22;;;;;;;33.06;29.28;99199.88;5071123;28;20241;-68
2022/07/30 10:24:23;;;;;;;6.45;5.85;;;;;;;33.05;30.20;99198.19;5071164;28;20216;-68
2022/07/30 10:26:50;;;;;;;5.88;5.38;;;;;;;32.93;30.17;99177.84;5071035;28;20192;-68
2022/07/30 10:29:20;;;;;;;7.63;5.10;;;;;;;33.05;29.08;99202.63;5070996;28;20186;-68
2022/07/30 10:31:48;;;;;;;5.93;5.43;;;;;;;32.94;30.02;99200.81;5071064;28;20576;-67
2022/07/30 10:34:16;;;;;;;7.68;5.40;;;;;;;33.01;30.50;99191.41;5070853;28;20234;-67
2022/07/30 10:36:47;;;;;;;7.20;6.60;;;;;;;33.00;29.93;99188.84;5069857;28;20176;-68
2022/07/30 10:39:18;;;;;;;5.10;4.70;;;;;;;33.00;29.42;99180.84;5071098;28;20191;-66
2022/07/30 10:41:55;;;;;;;6.25;5.70;;;;;;;33.09;30.05;99183.66;5070952;28;20194;-68
2022/07/30 10:45:02;;;;;;;6.68;6.07;;;;;;;33.16;30.20;99176.00;5070979;28;20205;-68
2022/07/30 10:47:32;;;;;;;6.75;6.05;;;;;;;33.34;31.11;99177.19;5070794;28;20198;-68
2022/07/30 10:50:10;;;;;;;9.07;6.55;;;;;;;33.54;30.33;99164.88;5071412;28;20222;-67
2022/07/30 10:52:52;;;;;;;4.60;4.30;;;;;;;33.29;28.65;99163.41;5070738;28;20195;-67
2022/07/30 10:55:21;;;;;;;5.25;4.85;;;;;;;33.29;29.96;99165.22;5070430;28;20196;-67
2022/07/30 10:58:01;;;;;;;6.32;5.20;;;;;;;33.40;28.98;99155.38;5070464;28;20230;-67
2022/07/30 11:00:30;;;;;;;6.68;5.40;;;;;;;33.43;29.51;99152.41;5070918;28;20318;-60
2022/07/30 11:03:18;;;;;;;11.38;5.80;;;;;;;33.52;29.37;99145.47;5070086;28;20658;-60
2022/07/30 11:05:47;;;;;;;6.60;5.63;;;;;;;33.43;30.19;99140.94;5070377;28;20292;-60
2022/07/30 11:08:39;;;;;;;7.60;5.70;;;;;;;33.49;30.77;99140.41;5069087;28;20437;-60
2022/07/30 11:11:45;;;;;;;7.13;5.50;;;;;;;33.72;30.39;99144.69;5070058;28;20192;-60
2022/07/30 11:14:12;;;;;;;5.80;5.00;;;;;;;33.84;28.09;99133.00;5070077;28;20281;-61
2022/07/30 11:17:04;;;;;;;10.07;6.88;;;;;;;34.00;28.98;99128.06;5069960;28;20187;-61
2022/07/30 11:19:31;;;;;;;5.55;5.05;;;;;;;34.00;29.09;99133.41;5059731;28;20195;-61
2022/07/30 11:22:23;;;;;;;5.65;5.25;;;;;;;34.12;28.96;99123.50;5069999;28;20199;-61
2022/07/30 11:24:50;;;;;;;12.05;8.05;;;;;;;34.29;28.37;99126.41;5064382;28;20280;-61
2022/07/30 11:27:35;;;;;;;6.78;5.47;;;;;;;34.20;28.96;99121.84;5069762;28;20221;-61
2022/07/30 11:30:03;;;;;;;5.20;4.80;;;;;;;34.05;26.48;99120.50;5069969;28;20198;-61
2022/07/30 11:32:32;;;;;;;5.30;4.80;;;;;;;34.12;26.32;99118.16;5070002;28;20191;-61
2022/07/30 11:35:14;;;;;;;5.60;5.10;;;;;;;34.18;26.87;99105.16;5069883;28;20594;-61
2022/07/30 11:38:02;;;;;;;5.18;4.53;;;;;;;34.33;28.18;99084.31;5069525;28;20191;-61
2022/07/30 11:40:30;;;;;;;7.45;5.10;;;;;;;34.53;27.75;99095.91;5069853;28;20199;-61
2022/07/30 11:43:22;;;;;;;4.95;4.47;;;;;;;34.34;27.78;99094.81;5069518;28;20187;-61
2022/07/30 11:45:50;;;;;;;4.50;4.10;;;;;;;34.35;27.02;99080.53;5069749;28;20317;-61